Waycross, Georgia
Current Conditions -  °F | °C
As of 5:35 PM on Sunday 23 Nov 2014 (Local Time) from KAYS Reporting Station
Broken Clouds Broken Clouds  
Wind Chill: 75°   Ceiling: 2500
Heat Index: 75°   Visibility: 10mi
Dew Point: 74°   Wind: 7mph
Humidity: 97%   Direction: 190°S
Pressure: 29.81"   Gusts: NA
Location:  31.21°N, 82.36°W
Report Text: KAYS 232235Z AUTO 19006KT 10SM BKN025 BKN032 BKN039 24/24 A2981 RMK AO2 T02410236
Loading
Personal Weather Stations






























Interactive Weather Map New forecast layout! Learn more

10-Day Weather Forecast

Advertisements
Track Severe Weather on mobile